Orbital elements of FENGYUN 1C DEB
| Launched | 9 May 1999 |
| Flight ended | – |
| Launch site | Taiyuan Space Center, PRC |
| Owner | People's Republic of China |
| NORAD ID | 31016 |
| Date fetched |
Epoch osculation |
Inc. [°] |
Ecc. | RA asc node [hr] |
Arg Peri. [°] |
Mean anom [°] |
Mean motion [rev/day] |
Abs. mag |
| Date fetched |
Epoch osculation |
Inc. [°] |
Ecc. | RA asc node [hr] |
Arg Peri. [°] |
Mean anom [°] |
Mean motion [rev/day] |
Abs. mag |
| 2026 May 03 17:57 | 2026 Apr 29 06:54:24 | 98.4283 | 0.01118 | 9.0673 | 227.0834 | 148.2965 | 14.30711 | – |
| 2026 May 02 17:57 | 2026 Apr 29 06:54:24 | 98.4283 | 0.01118 | 9.0673 | 227.0834 | 148.2965 | 14.30711 | – |
| 2026 May 01 17:56 | 2026 Apr 29 06:54:24 | 98.4283 | 0.01118 | 9.0673 | 227.0834 | 148.2965 | 14.30711 | – |
| 2026 Apr 30 17:56 | 2026 Apr 29 06:54:24 | 98.4283 | 0.01118 | 9.0673 | 227.0834 | 148.2965 | 14.30711 | – |
| 2026 Apr 29 17:57 | 2026 Apr 22 19:35:05 | 98.4295 | 0.01115 | 8.6488 | 246.4118 | 148.2965 | 14.30711 | – |
| 2026 Apr 28 17:56 | 2026 Apr 22 19:35:05 | 98.4295 | 0.01115 | 8.6488 | 246.4118 | 148.2965 | 14.30711 | – |
| 2026 Apr 27 17:58 | 2026 Apr 22 19:35:05 | 98.4295 | 0.01115 | 8.6488 | 246.4118 | 148.2965 | 14.30711 | – |
| 2026 Apr 26 17:58 | 2026 Apr 22 19:35:05 | 98.4295 | 0.01115 | 8.6488 | 246.4118 | 148.2965 | 14.30711 | – |
| 2026 Apr 25 17:58 | 2026 Apr 22 19:35:05 | 98.4295 | 0.01115 | 8.6488 | 246.4118 | 148.2965 | 14.30711 | – |
| 2026 Apr 24 17:59 | 2026 Apr 22 19:35:05 | 98.4295 | 0.01115 | 8.6488 | 246.4118 | 148.2965 | 14.30711 | – |
| 2026 Apr 23 17:57 | 2026 Apr 18 07:23:50 | 98.4298 | 0.01115 | 8.3573 | 259.8938 | 148.2965 | 14.30711 | – |
| 2026 Apr 22 17:57 | 2026 Apr 18 07:23:50 | 98.4298 | 0.01115 | 8.3573 | 259.8938 | 148.2965 | 14.30711 | – |
| 2026 Apr 21 17:57 | 2026 Apr 18 07:23:50 | 98.4298 | 0.01115 | 8.3573 | 259.8938 | 148.2965 | 14.30711 | – |
| 2026 Apr 20 17:57 | 2026 Apr 18 07:23:50 | 98.4298 | 0.01115 | 8.3573 | 259.8938 | 148.2965 | 14.30711 | – |
| 2026 Apr 19 17:58 | 2026 Apr 18 07:23:50 | 98.4298 | 0.01115 | 8.3573 | 259.8938 | 148.2965 | 14.30711 | – |
| 2026 Apr 18 17:56 | 2026 Apr 12 00:30:45 | 98.4295 | 0.01114 | 7.9507 | 278.7046 | 148.2965 | 14.30711 | – |
| 2026 Apr 16 17:57 | 2026 Apr 12 00:30:45 | 98.4295 | 0.01114 | 7.9507 | 278.7046 | 148.2965 | 14.30711 | – |
| 2026 Apr 14 17:57 | 2026 Apr 12 00:30:45 | 98.4295 | 0.01114 | 7.9507 | 278.7046 | 148.2965 | 14.30711 | – |
| 2026 Apr 13 17:57 | 2026 Apr 12 00:30:45 | 98.4295 | 0.01114 | 7.9507 | 278.7046 | 148.2965 | 14.30711 | – |
| 2026 Apr 12 17:57 | 2026 Apr 06 00:13:02 | 98.4305 | 0.01115 | 7.5618 | 296.6732 | 148.2965 | 14.30711 | – |
| 2026 Apr 11 17:57 | 2026 Apr 06 00:13:02 | 98.4305 | 0.01115 | 7.5618 | 296.6732 | 148.2965 | 14.30711 | – |
| 2026 Apr 10 17:58 | 2026 Apr 06 00:13:02 | 98.4305 | 0.01115 | 7.5618 | 296.6732 | 148.2965 | 14.30711 | – |
| 2026 Apr 09 18:01 | 2026 Apr 06 00:13:02 | 98.4305 | 0.01115 | 7.5618 | 296.6732 | 148.2965 | 14.30711 | – |
| 2026 Apr 08 17:57 | 2026 Apr 06 00:13:02 | 98.4305 | 0.01115 | 7.5618 | 296.6732 | 148.2965 | 14.30711 | – |
| 2026 Apr 07 17:57 | 2026 Apr 02 07:14:52 | 98.4311 | 0.01117 | 7.3220 | 307.7655 | 148.2965 | 14.30711 | – |
| 2026 Apr 06 17:57 | 2026 Apr 02 07:14:52 | 98.4311 | 0.01117 | 7.3220 | 307.7655 | 148.2965 | 14.30711 | – |